Time;durP1;ratioP1;P1;durP2;ratioP2;P2;SDS_P1;SDS_P2;PMS_P1;PMS_P2;Temp;Humidity;BMP_temperature;BMP_pressure;BME280_temperature;BME280_humidity;BME280_pressure;Samples;Min_cycle;Max_cycle;Signal;HPM_P1;HPM_P2
2024/01/15 00:00:15;;;;;;;61.17;26.70;;;2.70;66.40;;;;;;5094993;28;20397;-75
2024/01/15 00:02:40;;;;;;;56.35;25.45;;;2.70;67.40;;;;;;5094341;28;20385;-75
2024/01/15 00:05:06;;;;;;;54.53;26.13;;;2.60;68.70;;;;;;5094049;28;20398;-75
2024/01/15 00:07:32;;;;;;;60.10;27.00;;;2.50;69.90;;;;;;5096405;28;20392;-76
2024/01/15 00:09:57;;;;;;;66.60;28.07;;;2.50;70.80;;;;;;5096193;28;20381;-74
2024/01/15 00:12:23;;;;;;;58.80;26.95;;;2.50;70.70;;;;;;5094295;28;20391;-75
2024/01/15 00:14:48;;;;;;;61.80;26.95;;;2.50;71.60;;;;;;5095137;28;20471;-76
2024/01/15 00:17:14;;;;;;;59.95;27.40;;;2.50;71.90;;;;;;5095191;28;20383;-76
2024/01/15 00:19:39;;;;;;;57.28;26.60;;;2.50;72.20;;;;;;5094692;28;20406;-75
2024/01/15 00:22:05;;;;;;;54.63;26.20;;;2.50;72.40;;;;;;5094821;28;20662;-75
2024/01/15 00:24:30;;;;;;;55.70;27.03;;;2.50;72.00;;;;;;5094802;28;20378;-77
2024/01/15 00:26:56;;;;;;;59.87;27.40;;;2.40;72.70;;;;;;5094404;28;20454;-74
2024/01/15 00:29:21;;;;;;;58.33;27.13;;;2.40;73.70;;;;;;5094319;28;20385;-75
2024/01/15 00:31:47;;;;;;;54.33;26.27;;;2.40;73.40;;;;;;5093785;28;20413;-75
2024/01/15 00:34:13;;;;;;;58.53;25.48;;;2.40;73.20;;;;;;5093750;28;20382;-76
2024/01/15 00:36:38;;;;;;;52.88;24.90;;;2.40;72.80;;;;;;5093328;28;20386;-76
2024/01/15 00:39:05;;;;;;;57.60;26.67;;;2.40;72.90;;;;;;5094057;28;20930;-77
2024/01/15 00:41:31;;;;;;;53.45;24.83;;;2.40;73.60;;;;;;5094413;28;20853;-77
2024/01/15 00:43:56;;;;;;;54.72;26.77;;;2.40;72.70;;;;;;5095560;28;20725;-74
2024/01/15 00:46:22;;;;;;;54.87;26.57;;;2.50;73.30;;;;;;5096337;28;20583;-75
2024/01/15 00:48:48;;;;;;;53.65;25.77;;;2.50;73.20;;;;;;5094332;28;20531;-74
2024/01/15 00:51:13;;;;;;;51.55;25.42;;;2.50;73.00;;;;;;5094442;28;20427;-76
2024/01/15 00:53:39;;;;;;;51.50;26.37;;;2.50;73.90;;;;;;5095156;28;20493;-75
2024/01/15 00:56:04;;;;;;;54.57;24.77;;;2.50;71.70;;;;;;5095005;28;20397;-76
2024/01/15 00:58:30;;;;;;;49.50;24.17;;;2.50;72.00;;;;;;5094123;28;20408;-74
2024/01/15 01:00:55;;;;;;;54.33;25.65;;;2.50;72.10;;;;;;5094123;28;20405;-74
2024/01/15 01:03:21;;;;;;;53.33;25.13;;;2.50;73.10;;;;;;5092708;28;20394;-74
2024/01/15 01:05:48;;;;;;;51.35;25.90;;;2.50;72.80;;;;;;5094087;28;20374;-74
2024/01/15 01:08:15;;;;;;;53.20;26.30;;;2.50;73.00;;;;;;5093657;28;20939;-76
2024/01/15 01:10:42;;;;;;;51.45;25.60;;;2.50;72.70;;;;;;5094448;28;20383;-75
2024/01/15 01:13:08;;;;;;;52.20;25.63;;;2.50;73.00;;;;;;5096240;28;20468;-75
2024/01/15 01:15:34;;;;;;;54.53;24.90;;;2.50;73.30;;;;;;5098764;28;20409;-76
2024/01/15 01:17:59;;;;;;;47.30;24.70;;;2.50;72.70;;;;;;5095673;28;20378;-77
2024/01/15 01:20:25;;;;;;;51.53;25.10;;;2.60;73.30;;;;;;5095603;28;20429;-74
2024/01/15 01:22:50;;;;;;;52.70;25.87;;;2.60;72.40;;;;;;5094574;28;20382;-74
2024/01/15 01:25:16;;;;;;;51.87;25.53;;;2.60;72.50;;;;;;5093264;28;20382;-75
2024/01/15 01:27:41;;;;;;;51.87;24.33;;;2.60;72.50;;;;;;5092486;28;20393;-75
2024/01/15 01:30:09;;;;;;;52.17;25.30;;;2.70;71.40;;;;;;5092246;28;20454;-76
2024/01/15 01:32:35;;;;;;;52.30;25.17;;;2.60;72.40;;;;;;5092549;28;20378;-76
2024/01/15 01:35:01;;;;;;;45.05;23.58;;;2.70;72.20;;;;;;5093288;28;20385;-76
2024/01/15 01:37:26;;;;;;;49.92;25.17;;;2.60;72.10;;;;;;5093068;28;20378;-75
2024/01/15 01:39:52;;;;;;;45.85;22.83;;;2.60;72.10;;;;;;5092764;28;20437;-75
2024/01/15 01:42:17;;;;;;;42.77;22.23;;;2.60;71.60;;;;;;5092641;28;20748;-75
2024/01/15 01:44:43;;;;;;;43.17;22.47;;;2.70;70.40;;;;;;5093312;28;20370;-75
2024/01/15 01:47:09;;;;;;;43.13;23.30;;;2.70;71.30;;;;;;5093515;28;20412;-75
2024/01/15 01:49:35;;;;;;;46.30;21.80;;;2.70;71.90;;;;;;5090775;28;20389;-76
2024/01/15 01:52:04;;;;;;;46.35;22.77;;;2.60;71.70;;;;;;5093394;28;20389;-74
2024/01/15 01:54:32;;;;;;;46.95;22.30;;;2.70;71.60;;;;;;5093674;28;20813;-75
2024/01/15 01:56:58;;;;;;;46.60;22.30;;;2.80;71.30;;;;;;5092754;28;20389;-75
2024/01/15 01:59:26;;;;;;;41.30;21.20;;;2.70;71.00;;;;;;5093470;28;20398;-77
2024/01/15 02:01:54;;;;;;;44.20;22.15;;;2.70;71.40;;;;;;5093492;28;20382;-75
2024/01/15 02:04:19;;;;;;;42.58;22.15;;;2.70;71.80;;;;;;5094194;28;20387;-76
2024/01/15 02:06:46;;;;;;;44.90;21.67;;;2.80;70.90;;;;;;5096023;28;20384;-74
2024/01/15 02:09:14;;;;;;;41.73;21.57;;;2.80;71.60;;;;;;5093199;28;20461;-75
2024/01/15 02:11:41;;;;;;;39.53;19.85;;;2.70;71.70;;;;;;5092955;28;20898;-76
2024/01/15 02:14:06;;;;;;;38.08;21.08;;;2.80;72.20;;;;;;5091886;28;20386;-76
2024/01/15 02:16:32;;;;;;;40.00;20.50;;;2.80;72.20;;;;;;5091987;28;20393;-76
2024/01/15 02:18:57;;;;;;;43.57;20.70;;;2.80;71.90;;;;;;5091526;28;20382;-75
2024/01/15 02:21:23;;;;;;;41.73;20.80;;;2.80;71.50;;;;;;5091190;28;20378;-74
2024/01/15 02:23:48;;;;;;;41.60;20.73;;;2.80;71.60;;;;;;5091111;28;20876;-76
2024/01/15 02:26:14;;;;;;;41.70;20.50;;;2.80;72.70;;;;;;5094409;28;20382;-75
2024/01/15 02:28:41;;;;;;;44.08;20.20;;;2.80;72.60;;;;;;5073406;22;20436;-69
2024/01/15 02:31:07;;;;;;;35.63;19.30;;;2.80;72.10;;;;;;5070018;28;20908;-69
2024/01/15 02:33:32;;;;;;;44.05;19.50;;;2.90;72.40;;;;;;5070210;28;20388;-69
2024/01/15 02:35:58;;;;;;;41.17;19.77;;;2.90;72.50;;;;;;5070121;28;20376;-69
2024/01/15 02:38:23;;;;;;;34.78;17.90;;;2.90;72.40;;;;;;5086218;28;20378;-70
2024/01/15 02:40:49;;;;;;;34.07;17.67;;;2.90;72.40;;;;;;5090094;28;20402;-69
2024/01/15 02:43:15;;;;;;;36.95;18.30;;;2.90;70.50;;;;;;5090170;28;20477;-70
2024/01/15 02:45:40;;;;;;;37.60;18.80;;;2.80;71.70;;;;;;5090158;28;20453;-69
2024/01/15 02:48:06;;;;;;;37.85;17.10;;;2.80;72.20;;;;;;5089919;28;20392;-69
2024/01/15 02:50:31;;;;;;;37.87;18.60;;;2.90;72.40;;;;;;5090405;28;20378;-69
2024/01/15 02:52:57;;;;;;;35.43;17.73;;;2.90;71.80;;;;;;5090348;28;20385;-69
2024/01/15 02:55:23;;;;;;;36.13;17.80;;;2.90;71.60;;;;;;5090254;28;20386;-69
2024/01/15 02:57:48;;;;;;;36.73;17.33;;;2.90;71.50;;;;;;5090201;28;20382;-70
2024/01/15 03:00:14;;;;;;;33.43;17.27;;;2.90;71.10;;;;;;5090183;28;20444;-70
2024/01/15 03:02:40;;;;;;;32.53;17.58;;;2.90;71.30;;;;;;5089953;28;20406;-69
2024/01/15 03:05:07;;;;;;;31.23;16.23;;;2.90;72.10;;;;;;5090201;28;20444;-70
2024/01/15 03:07:33;;;;;;;38.55;18.25;;;2.90;70.90;;;;;;5090002;28;20434;-69
2024/01/15 03:09:59;;;;;;;38.58;17.65;;;2.90;70.90;;;;;;5089885;28;20752;-69
2024/01/15 03:12:24;;;;;;;30.05;15.88;;;2.90;71.00;;;;;;5089881;28;20386;-69
2024/01/15 03:14:50;;;;;;;30.33;15.80;;;3.00;69.60;;;;;;5089949;28;20393;-70
2024/01/15 03:17:15;;;;;;;27.07;14.43;;;2.90;69.60;;;;;;5072005;28;20439;-70
2024/01/15 03:19:41;;;;;;;28.80;16.00;;;2.90;69.10;;;;;;5089738;28;20941;-69
2024/01/15 03:22:08;;;;;;;29.58;15.88;;;2.90;69.20;;;;;;5089883;28;20750;-70
2024/01/15 03:24:35;;;;;;;32.40;15.80;;;2.90;69.70;;;;;;5090063;28;20675;-69
2024/01/15 03:27:01;;;;;;;30.23;16.05;;;2.90;69.70;;;;;;5089582;28;20382;-69
2024/01/15 03:29:26;;;;;;;32.35;17.23;;;2.90;69.20;;;;;;5071593;28;20394;-70
2024/01/15 03:31:52;;;;;;;35.72;16.17;;;2.90;69.60;;;;;;5071378;28;20398;-70
2024/01/15 03:34:18;;;;;;;30.17;15.30;;;2.90;69.70;;;;;;5089792;28;20642;-70
2024/01/15 03:36:44;;;;;;;29.67;15.35;;;2.90;69.40;;;;;;5089689;28;20747;-69
2024/01/15 03:39:09;;;;;;;29.55;15.55;;;2.90;69.70;;;;;;5092467;28;20393;-70
2024/01/15 03:41:35;;;;;;;29.47;16.10;;;3.00;68.90;;;;;;5093326;28;20393;-70
2024/01/15 03:44:01;;;;;;;31.13;15.50;;;3.00;69.00;;;;;;5093314;28;20382;-71
2024/01/15 03:46:26;;;;;;;30.92;15.85;;;3.00;68.80;;;;;;5093086;28;20382;-70
2024/01/15 03:48:52;;;;;;;29.75;16.50;;;2.90;69.20;;;;;;5093391;28;20386;-72
2024/01/15 03:51:18;;;;;;;32.33;15.40;;;2.90;69.20;;;;;;5074773;28;20443;-71
2024/01/15 03:53:44;;;;;;;28.37;15.13;;;3.00;68.70;;;;;;5093576;28;20469;-72
2024/01/15 03:56:09;;;;;;;29.00;15.38;;;3.00;68.50;;;;;;5093271;28;20386;-72
2024/01/15 03:58:35;;;;;;;30.67;16.15;;;2.90;68.90;;;;;;5092997;28;20390;-72
2024/01/15 04:01:00;;;;;;;28.67;15.50;;;3.00;69.30;;;;;;5093258;28;20481;-71
2024/01/15 04:03:26;;;;;;;29.00;15.10;;;3.00;69.40;;;;;;5093293;28;20519;-70
2024/01/15 04:05:51;;;;;;;29.17;15.60;;;3.00;69.20;;;;;;5093483;28;20431;-70
2024/01/15 04:08:17;;;;;;;30.50;15.80;;;2.90;69.20;;;;;;5097623;28;20840;-70
2024/01/15 04:10:42;;;;;;;32.43;15.40;;;3.00;68.40;;;;;;5099475;28;20404;-72
2024/01/15 04:13:08;;;;;;;33.37;15.47;;;3.00;68.50;;;;;;5100463;28;20385;-71
2024/01/15 04:15:33;;;;;;;29.63;15.70;;;3.00;68.70;;;;;;5098888;28;20756;-71
2024/01/15 04:18:01;;;;;;;26.80;15.40;;;3.00;69.10;;;;;;5093220;28;20861;-70
2024/01/15 04:20:26;;;;;;;25.63;14.50;;;2.90;68.40;;;;;;5096964;28;20401;-71
2024/01/15 04:22:52;;;;;;;29.70;16.17;;;2.90;69.00;;;;;;5098242;28;20382;-71
2024/01/15 04:25:17;;;;;;;28.90;15.18;;;2.90;68.40;;;;;;5096525;28;20393;-70
2024/01/15 04:27:43;;;;;;;26.35;14.45;;;2.90;68.90;;;;;;5078305;28;20402;-70
2024/01/15 04:30:09;;;;;;;24.73;14.50;;;2.80;69.20;;;;;;5098782;28;20381;-70
2024/01/15 04:32:35;;;;;;;23.92;13.60;;;2.80;68.50;;;;;;5103257;28;20440;-71
2024/01/15 04:35:00;;;;;;;26.63;14.35;;;2.80;68.90;;;;;;5100480;28;20385;-71
2024/01/15 04:37:26;;;;;;;27.20;14.13;;;2.70;69.60;;;;;;5098119;28;20397;-71
2024/01/15 04:39:54;;;;;;;25.10;14.47;;;2.70;70.20;;;;;;5097671;28;20405;-71
2024/01/15 04:42:23;;;;;;;22.73;13.38;;;2.70;70.30;;;;;;5092150;28;20389;-70
2024/01/15 04:44:48;;;;;;;22.38;12.75;;;2.70;69.30;;;;;;5073739;28;20743;-70
2024/01/15 04:47:14;;;;;;;22.90;12.43;;;2.80;68.50;;;;;;5092142;28;20382;-71
2024/01/15 04:49:39;;;;;;;20.40;13.23;;;2.80;68.30;;;;;;5098753;28;20390;-72
2024/01/15 04:52:05;;;;;;;23.88;12.63;;;2.80;68.40;;;;;;5079433;28;20434;-72
2024/01/15 04:54:30;;;;;;;26.45;13.45;;;2.80;68.50;;;;;;5090069;28;20397;-70
2024/01/15 04:56:56;;;;;;;29.92;14.32;;;2.70;68.70;;;;;;5093792;28;20390;-71
2024/01/15 04:59:21;;;;;;;23.73;13.47;;;2.80;68.50;;;;;;5088500;28;20462;-72
2024/01/15 05:01:48;;;;;;;24.70;13.57;;;2.80;68.20;;;;;;5075993;28;20569;-72
2024/01/15 05:04:14;;;;;;;25.30;13.75;;;2.90;68.80;;;;;;5076967;28;20466;-73
2024/01/15 05:06:40;;;;;;;23.48;12.80;;;2.90;68.80;;;;;;5077573;28;20433;-71
2024/01/15 05:09:05;;;;;;;22.60;12.30;;;2.90;68.10;;;;;;5082583;28;20575;-71
2024/01/15 05:11:31;;;;;;;24.93;13.27;;;2.90;68.40;;;;;;5080930;28;20384;-71
2024/01/15 05:13:57;;;;;;;22.13;11.70;;;3.00;67.20;;;;;;5077096;28;20391;-71
2024/01/15 05:16:22;;;;;;;18.05;11.60;;;3.00;67.40;;;;;;5077274;28;20888;-71
2024/01/15 05:18:48;;;;;;;21.60;11.23;;;2.90;67.40;;;;;;5078036;28;20391;-72
2024/01/15 05:21:13;;;;;;;22.83;12.30;;;3.00;66.90;;;;;;5084561;28;20496;-71
2024/01/15 05:23:39;;;;;;;22.53;11.13;;;3.00;66.60;;;;;;5085469;28;20390;-72
2024/01/15 05:26:04;;;;;;;25.17;11.73;;;3.00;66.40;;;;;;5085274;28;20383;-72
2024/01/15 05:28:30;;;;;;;28.17;11.70;;;3.00;66.30;;;;;;5084827;28;20482;-71
2024/01/15 05:30:56;;;;;;;24.23;12.33;;;3.00;67.50;;;;;;5084384;28;20395;-71
2024/01/15 05:33:24;;;;;;;25.08;11.55;;;3.00;67.30;;;;;;5084370;28;20426;-70
2024/01/15 05:35:50;;;;;;;20.10;11.35;;;3.10;66.60;;;;;;5075500;28;20461;-71
2024/01/15 05:38:16;;;;;;;23.85;11.27;;;3.00;66.90;;;;;;5074936;28;20387;-70
2024/01/15 05:40:42;;;;;;;19.88;11.07;;;3.10;67.00;;;;;;5074621;28;20840;-70
2024/01/15 05:43:07;;;;;;;22.00;10.63;;;3.00;67.10;;;;;;5073960;28;20441;-71
2024/01/15 05:45:34;;;;;;;20.20;11.37;;;3.00;66.70;;;;;;5073290;28;20395;-71
2024/01/15 05:48:00;;;;;;;22.23;10.65;;;3.00;67.20;;;;;;5073047;28;20388;-70
2024/01/15 05:50:25;;;;;;;20.45;10.70;;;3.00;67.30;;;;;;5071636;28;20463;-71
2024/01/15 05:52:51;;;;;;;21.85;10.23;;;3.00;67.50;;;;;;5073529;28;20453;-71
2024/01/15 05:55:18;;;;;;;19.15;10.45;;;3.10;66.70;;;;;;5072620;28;20372;-72
2024/01/15 05:57:44;;;;;;;20.45;10.20;;;3.10;67.00;;;;;;5069940;28;20403;-71
2024/01/15 06:00:10;;;;;;;15.25;9.98;;;3.10;66.40;;;;;;5070469;28;20461;-70
2024/01/15 06:02:38;;;;;;;22.35;10.27;;;3.10;66.60;;;;;;5070579;28;20401;-71
2024/01/15 06:05:03;;;;;;;22.15;10.85;;;3.10;66.40;;;;;;5070646;28;20497;-70
2024/01/15 06:07:29;;;;;;;21.27;10.50;;;3.10;66.50;;;;;;5070391;28;20380;-70
2024/01/15 06:09:56;;;;;;;16.52;9.73;;;3.10;65.90;;;;;;5069722;28;20391;-70
2024/01/15 06:12:22;;;;;;;20.30;9.80;;;3.10;64.90;;;;;;5070477;28;20379;-71
2024/01/15 06:14:48;;;;;;;18.25;9.50;;;3.20;65.10;;;;;;5070455;28;20384;-71
2024/01/15 06:17:13;;;;;;;17.15;10.02;;;3.10;65.30;;;;;;5071233;28;20383;-70
2024/01/15 06:19:39;;;;;;;16.10;10.10;;;3.10;66.00;;;;;;5070187;28;20407;-71
2024/01/15 06:22:04;;;;;;;18.37;9.77;;;3.00;66.10;;;;;;5070214;28;20384;-71
2024/01/15 06:24:30;;;;;;;18.57;9.87;;;3.00;65.80;;;;;;5070157;28;20380;-70
2024/01/15 06:26:55;;;;;;;16.00;8.97;;;3.10;66.10;;;;;;5069691;28;20417;-70
2024/01/15 06:29:21;;;;;;;20.65;9.60;;;3.00;66.90;;;;;;5070176;28;20421;-70
2024/01/15 06:31:47;;;;;;;18.30;8.52;;;3.10;67.80;;;;;;5069999;28;20387;-72
2024/01/15 06:34:15;;;;;;;15.37;8.60;;;3.10;66.10;;;;;;5070179;28;20396;-70
2024/01/15 06:36:40;;;;;;;14.55;8.48;;;3.00;66.60;;;;;;5070187;28;20412;-71
2024/01/15 06:39:06;;;;;;;14.32;8.23;;;3.00;67.30;;;;;;5070258;28;20383;-70
2024/01/15 06:41:32;;;;;;;16.58;8.10;;;3.10;66.60;;;;;;5070456;28;20798;-71
2024/01/15 06:43:57;;;;;;;17.87;7.60;;;3.00;67.00;;;;;;5070479;28;20882;-71
2024/01/15 06:46:23;;;;;;;16.13;8.50;;;3.10;66.60;;;;;;5069772;28;20437;-71
2024/01/15 06:48:49;;;;;;;15.23;8.10;;;3.10;66.80;;;;;;5069719;28;20505;-71
2024/01/15 06:51:16;;;;;;;12.48;6.97;;;3.10;66.90;;;;;;5068732;28;20392;-71
2024/01/15 06:53:41;;;;;;;15.10;6.70;;;3.10;66.60;;;;;;5070207;28;20396;-71
2024/01/15 06:56:07;;;;;;;13.17;7.57;;;3.10;66.40;;;;;;5070494;28;20384;-72
2024/01/15 06:58:32;;;;;;;12.65;6.70;;;3.10;66.70;;;;;;5070170;28;20390;-71
2024/01/15 07:00:58;;;;;;;11.68;7.35;;;3.10;67.10;;;;;;5070108;28;20928;-72
2024/01/15 07:03:23;;;;;;;13.18;7.63;;;3.00;67.60;;;;;;5070081;28;20406;-73
2024/01/15 07:05:49;;;;;;;13.63;7.00;;;3.10;68.10;;;;;;5070330;28;20391;-72
2024/01/15 07:08:15;;;;;;;13.73;8.60;;;3.00;68.90;;;;;;5069936;28;20383;-70
2024/01/15 07:10:40;;;;;;;12.15;8.18;;;3.00;68.90;;;;;;5069878;28;20402;-72
2024/01/15 07:13:06;;;;;;;17.55;9.40;;;3.00;69.80;;;;;;5072607;28;20925;-70
2024/01/15 07:15:31;;;;;;;17.45;10.18;;;3.00;69.10;;;;;;5073968;28;20375;-72
2024/01/15 07:17:57;;;;;;;16.83;10.07;;;3.00;68.50;;;;;;5073967;28;20959;-73
2024/01/15 07:20:23;;;;;;;16.53;10.13;;;3.10;68.70;;;;;;5073488;28;20809;-70
2024/01/15 07:22:48;;;;;;;17.97;10.00;;;3.00;68.80;;;;;;5073979;28;20386;-72
2024/01/15 07:25:15;;;;;;;18.70;10.93;;;3.00;68.90;;;;;;5074011;28;20379;-72
2024/01/15 07:27:44;;;;;;;20.97;11.20;;;3.10;68.40;;;;;;5073098;28;20545;-71
2024/01/15 07:30:10;;;;;;;25.88;12.15;;;3.00;68.60;;;;;;5073004;28;20526;-71
2024/01/15 07:32:36;;;;;;;20.30;11.80;;;3.10;68.60;;;;;;5072826;28;20380;-72
2024/01/15 07:35:01;;;;;;;21.90;12.73;;;3.10;68.30;;;;;;5073428;28;20375;-71
2024/01/15 07:37:28;;;;;;;26.25;12.55;;;3.10;68.30;;;;;;5073239;28;20478;-72
2024/01/15 07:39:53;;;;;;;28.50;14.30;;;3.10;68.10;;;;;;5073349;28;20403;-71
2024/01/15 07:42:19;;;;;;;21.50;12.90;;;3.00;68.50;;;;;;5073336;28;20375;-71
2024/01/15 07:44:44;;;;;;;24.58;13.18;;;3.10;68.70;;;;;;5073252;28;20391;-72
2024/01/15 07:47:10;;;;;;;22.17;13.50;;;3.10;67.90;;;;;;5073134;28;20464;-72
2024/01/15 07:49:36;;;;;;;20.02;12.27;;;3.10;67.90;;;;;;5073211;28;20379;-72
2024/01/15 07:52:02;;;;;;;23.07;11.20;;;3.10;68.20;;;;;;5072916;28;20908;-71
2024/01/15 07:54:28;;;;;;;18.42;12.05;;;3.20;67.50;;;;;;5072865;28;20978;-72
2024/01/15 07:56:57;;;;;;;19.83;11.73;;;3.20;68.10;;;;;;5073093;28;20469;-71
2024/01/15 07:59:23;;;;;;;21.77;12.30;;;3.20;67.70;;;;;;5071249;28;20408;-71
2024/01/15 08:01:49;;;;;;;20.15;11.25;;;3.20;67.90;;;;;;5072687;28;20460;-71
2024/01/15 08:04:15;;;;;;;22.83;11.43;;;3.20;67.10;;;;;;5072871;28;20759;-71
2024/01/15 08:06:40;;;;;;;24.23;11.37;;;3.10;68.40;;;;;;5072587;28;20450;-73
2024/01/15 08:09:06;;;;;;;23.60;11.70;;;3.10;68.20;;;;;;5072411;28;20383;-71
2024/01/15 08:11:31;;;;;;;18.92;11.60;;;3.00;69.10;;;;;;5072514;28;20371;-71
2024/01/15 08:13:57;;;;;;;20.02;11.50;;;3.00;69.10;;;;;;5073126;28;20387;-72
2024/01/15 08:16:25;;;;;;;19.70;11.45;;;3.00;69.20;;;;;;5072688;28;20770;-72
2024/01/15 08:18:50;;;;;;;19.77;11.98;;;2.90;70.30;;;;;;5072624;28;20457;-71
2024/01/15 08:21:16;;;;;;;20.97;11.77;;;2.90;70.40;;;;;;5072537;28;20459;-71
2024/01/15 08:23:41;;;;;;;21.73;12.67;;;2.90;71.40;;;;;;5071906;28;20789;-71
2024/01/15 08:26:08;;;;;;;19.33;12.23;;;2.90;70.20;;;;;;5072455;28;20376;-71
2024/01/15 08:28:34;;;;;;;23.83;12.13;;;2.90;70.50;;;;;;5077383;22;20846;-71
2024/01/15 08:30:59;;;;;;;17.07;11.67;;;2.80;70.50;;;;;;5074031;28;20376;-71
2024/01/15 08:33:25;;;;;;;19.43;12.20;;;2.90;70.70;;;;;;5072995;28;20384;-71
2024/01/15 08:35:51;;;;;;;18.50;11.33;;;2.80;71.60;;;;;;5073944;28;20372;-70
2024/01/15 08:38:16;;;;;;;25.20;11.82;;;2.80;71.70;;;;;;5084115;28;20401;-70
2024/01/15 08:40:42;;;;;;;17.80;11.98;;;2.70;72.70;;;;;;5092502;28;20424;-72
2024/01/15 08:43:07;;;;;;;19.48;11.05;;;2.70;73.30;;;;;;5092424;28;20877;-71
2024/01/15 08:45:33;;;;;;;20.25;11.73;;;2.60;73.80;;;;;;5092373;28;20382;-71
2024/01/15 08:47:59;;;;;;;18.40;11.90;;;2.60;74.40;;;;;;5090391;28;20440;-70
2024/01/15 08:50:24;;;;;;;18.55;11.80;;;2.60;75.40;;;;;;5091753;28;20733;-71
2024/01/15 08:52:50;;;;;;;21.02;12.98;;;2.60;75.00;;;;;;5073651;28;20397;-71
2024/01/15 08:55:15;;;;;;;19.58;13.00;;;2.70;74.40;;;;;;5092451;28;20409;-70
2024/01/15 08:57:41;;;;;;;18.53;11.87;;;2.70;73.70;;;;;;5092235;28;20468;-71
2024/01/15 09:00:10;;;;;;;16.77;11.47;;;2.60;74.50;;;;;;5092226;28;20423;-72
2024/01/15 09:02:35;;;;;;;18.52;11.88;;;2.70;73.90;;;;;;5092522;28;20386;-70
2024/01/15 09:05:01;;;;;;;17.95;11.60;;;2.70;73.40;;;;;;5092261;28;20389;-72
2024/01/15 09:07:27;;;;;;;20.00;11.95;;;2.70;73.20;;;;;;5093166;28;20385;-72
2024/01/15 09:09:53;;;;;;;18.60;12.30;;;2.70;74.20;;;;;;5095808;28;20381;-72
2024/01/15 09:12:20;;;;;;;18.60;12.23;;;2.70;73.70;;;;;;5078018;28;20385;-73
2024/01/15 09:14:46;;;;;;;19.35;12.60;;;2.70;73.50;;;;;;5094165;28;20374;-70
2024/01/15 09:17:12;;;;;;;16.00;11.13;;;2.70;73.70;;;;;;5092079;28;20440;-69
2024/01/15 09:19:39;;;;;;;17.92;12.20;;;2.70;73.70;;;;;;5091544;28;20892;-72
2024/01/15 09:22:05;;;;;;;20.00;13.07;;;2.60;74.60;;;;;;5092152;28;20975;-72
2024/01/15 09:24:30;;;;;;;17.25;12.60;;;2.60;75.30;;;;;;5091586;28;20469;-71
2024/01/15 09:26:56;;;;;;;19.13;13.00;;;2.50;75.70;;;;;;5091869;28;20416;-70
2024/01/15 09:29:23;;;;;;;20.43;13.73;;;2.50;77.70;;;;;;5091680;28;20750;-71
2024/01/15 09:31:50;;;;;;;19.17;13.30;;;2.50;76.90;;;;;;5091507;28;20442;-70
2024/01/15 09:34:15;;;;;;;18.13;12.55;;;2.60;76.50;;;;;;5091314;28;20740;-72
2024/01/15 09:36:42;;;;;;;23.07;14.03;;;2.50;76.30;;;;;;5091844;28;20370;-70
2024/01/15 09:39:08;;;;;;;14.32;11.68;;;2.60;76.50;;;;;;5090922;28;20378;-70
2024/01/15 09:41:37;;;;;;;14.85;11.30;;;2.60;75.90;;;;;;5089939;28;20424;-71
2024/01/15 09:44:10;;;;;;;14.70;10.35;;;2.70;75.40;;;;;;5091281;28;20436;-73
2024/01/15 09:46:36;;;;;;;13.57;10.95;;;2.70;74.20;;;;;;5091248;28;20389;-71
2024/01/15 09:49:01;;;;;;;15.27;10.10;;;2.80;73.60;;;;;;5090828;28;20382;-71
2024/01/15 09:51:31;;;;;;;14.57;10.40;;;2.90;73.00;;;;;;5089820;28;20386;-70
2024/01/15 09:53:57;;;;;;;16.92;9.55;;;3.00;72.60;;;;;;5072943;28;20465;-71
2024/01/15 09:56:23;;;;;;;13.15;8.95;;;3.00;72.00;;;;;;5091567;28;20385;-71
2024/01/15 09:58:51;;;;;;;9.75;7.68;;;3.00;71.40;;;;;;5092709;28;20424;-74
2024/01/15 10:01:17;;;;;;;9.50;7.80;;;2.90;72.20;;;;;;5076896;28;20474;-71
2024/01/15 10:03:42;;;;;;;10.30;8.40;;;2.80;72.30;;;;;;5074779;28;20444;-71
2024/01/15 10:06:10;;;;;;;12.63;8.43;;;2.80;73.10;;;;;;5073232;28;20393;-71
2024/01/15 10:08:37;;;;;;;11.77;8.27;;;2.70;73.60;;;;;;5091885;28;20384;-71
2024/01/15 10:11:04;;;;;;;12.13;8.03;;;2.80;73.60;;;;;;5091715;28;20374;-71
2024/01/15 10:13:30;;;;;;;10.07;7.38;;;2.80;72.40;;;;;;5091476;28;20405;-71
2024/01/15 10:15:56;;;;;;;13.75;7.43;;;2.80;73.10;;;;;;5091728;28;20480;-71
2024/01/15 10:18:21;;;;;;;10.57;7.87;;;2.90;71.70;;;;;;5092009;28;20393;-71
2024/01/15 10:20:47;;;;;;;9.93;7.30;;;3.00;72.50;;;;;;5091868;28;20467;-71
2024/01/15 10:23:14;;;;;;;11.18;7.10;;;3.00;70.60;;;;;;5092355;28;20389;-71
2024/01/15 10:25:42;;;;;;;6.63;5.82;;;3.00;72.20;;;;;;5092052;28;20374;-71
2024/01/15 10:28:08;;;;;;;10.15;6.70;;;3.00;71.40;;;;;;5095358;28;20424;-72
2024/01/15 10:30:34;;;;;;;8.32;6.60;;;3.10;71.20;;;;;;5099801;28;20382;-71
2024/01/15 10:33:01;;;;;;;9.20;6.43;;;3.00;71.60;;;;;;5099827;28;20390;-73
2024/01/15 10:35:34;;;;;;;8.00;6.17;;;3.00;71.20;;;;;;5097288;28;20389;-71
2024/01/15 10:38:00;;;;;;;8.80;6.00;;;3.00;71.70;;;;;;5097279;28;20493;-73
2024/01/15 10:40:27;;;;;;;9.15;6.05;;;3.00;71.70;;;;;;5095987;28;20741;-72
2024/01/15 10:42:53;;;;;;;7.43;5.50;;;2.90;72.10;;;;;;5093030;28;20379;-72
2024/01/15 10:45:19;;;;;;;7.03;5.30;;;2.80;72.40;;;;;;5074340;28;20394;-74
2024/01/15 10:47:44;;;;;;;5.80;4.83;;;2.80;72.30;;;;;;5095176;28;20475;-73
2024/01/15 10:50:10;;;;;;;6.50;5.30;;;2.90;72.90;;;;;;5096368;28;20438;-71
2024/01/15 10:52:40;;;;;;;10.15;5.47;;;2.90;71.90;;;;;;5096381;28;20474;-71
2024/01/15 10:55:09;;;;;;;7.35;5.70;;;2.90;72.50;;;;;;5095538;28;20400;-71
2024/01/15 10:57:36;;;;;;;7.05;5.55;;;2.90;73.10;;;;;;5095937;28;20446;-70
2024/01/15 11:00:05;;;;;;;6.63;4.75;;;2.90;71.70;;;;;;5095594;28;20921;-72
2024/01/15 11:02:32;;;;;;;7.88;4.97;;;3.00;71.90;;;;;;5076596;28;20451;-70
2024/01/15 11:04:59;;;;;;;5.85;4.80;;;3.10;71.50;;;;;;5095795;28;20382;-71
2024/01/15 11:07:26;;;;;;;5.80;4.80;;;3.20;69.10;;;;;;5095098;28;20489;-73
2024/01/15 11:09:51;;;;;;;5.45;4.07;;;3.10;69.10;;;;;;5094321;28;20374;-72
2024/01/15 11:12:19;;;;;;;5.03;4.30;;;3.10;69.90;;;;;;5093853;28;20748;-71
2024/01/15 11:14:49;;;;;;;6.72;3.80;;;3.10;70.50;;;;;;5096100;28;20378;-71
2024/01/15 11:17:16;;;;;;;7.20;3.80;;;3.10;70.00;;;;;;5097182;28;20385;-73
2024/01/15 11:19:41;;;;;;;7.30;3.20;;;3.10;69.50;;;;;;5095893;28;20409;-70
2024/01/15 11:22:29;;;;;;;8.03;3.37;;;3.20;68.50;;;;;;5093682;28;20393;-70
2024/01/15 11:24:55;;;;;;;5.13;3.30;;;3.20;68.10;;;;;;5093488;28;20377;-73
2024/01/15 11:27:43;;;;;;;6.78;3.00;;;3.30;67.30;;;;;;5075206;28;20451;-71
2024/01/15 11:30:14;;;;;;;45.75;11.52;;;3.30;65.50;;;;;;5075632;28;20458;-72
2024/01/15 11:32:42;;;;;;;19.15;5.90;;;3.30;66.90;;;;;;5093599;28;20747;-71
2024/01/15 11:35:09;;;;;;;13.73;5.20;;;3.30;66.70;;;;;;5093619;28;20381;-69
2024/01/15 11:37:56;;;;;;;18.73;6.93;;;3.30;67.30;;;;;;5077108;28;20738;-72
2024/01/15 11:40:32;;;;;;;10.77;4.00;;;3.30;65.90;;;;;;5076632;28;20752;-72
2024/01/15 11:42:58;;;;;;;8.68;3.30;;;3.40;65.50;;;;;;5094158;28;20374;-72
2024/01/15 11:45:24;;;;;;;6.93;4.00;;;3.50;63.90;;;;;;5094122;28;20887;-72
2024/01/15 11:47:58;;;;;;;11.95;4.50;;;3.60;60.60;;;;;;5094444;28;20754;-73
2024/01/15 11:50:26;;;;;;;8.10;4.00;;;3.60;60.80;;;;;;5098372;28;20443;-71
2024/01/15 11:53:03;;;;;;;14.43;5.03;;;3.80;59.60;;;;;;5097782;28;20382;-71
2024/01/15 11:55:38;;;;;;;18.98;7.88;;;4.10;58.80;;;;;;5095439;28;20389;-71
2024/01/15 11:58:11;;;;;;;79.38;20.80;;;4.10;56.40;;;;;;5094888;28;20536;-73
2024/01/15 12:00:42;;;;;;;56.53;13.90;;;3.90;58.10;;;;;;5097396;28;20398;-73
2024/01/15 12:03:09;;;;;;;62.92;14.00;;;3.90;57.40;;;;;;5096792;28;20397;-71
2024/01/15 12:05:37;;;;;;;71.65;21.50;;;3.90;57.30;;;;;;5097999;28;20382;-72
2024/01/15 12:08:03;;;;;;;24.25;7.75;;;3.80;58.30;;;;;;5098385;28;20413;-71
2024/01/15 12:10:29;;;;;;;11.02;5.35;;;3.80;58.90;;;;;;5098879;28;20394;-71
2024/01/15 12:13:21;;;;;;;10.95;4.55;;;3.80;58.40;;;;;;5098195;28;20409;-71
2024/01/15 12:15:47;;;;;;;11.93;4.13;;;3.80;58.20;;;;;;5091599;28;20422;-71
2024/01/15 12:18:15;;;;;;;9.98;4.70;;;3.90;57.10;;;;;;5093938;28;20408;-70
2024/01/15 12:20:43;;;;;;;9.17;3.93;;;3.90;56.90;;;;;;5093910;28;20441;-72
2024/01/15 12:23:10;;;;;;;10.25;4.78;;;3.90;56.60;;;;;;5093845;28;20378;-70
2024/01/15 12:25:36;;;;;;;8.10;3.05;;;3.80;57.20;;;;;;5075270;28;20386;-71
2024/01/15 12:28:01;;;;;;;11.45;5.05;;;3.80;59.00;;;;;;5074947;28;20404;-71
2024/01/15 12:30:28;;;;;;;6.70;4.30;;;3.80;57.70;;;;;;5093254;28;20477;-69
2024/01/15 12:32:54;;;;;;;8.30;4.50;;;3.90;57.90;;;;;;5075150;28;20422;-72
2024/01/15 12:35:20;;;;;;;6.55;4.50;;;3.90;57.80;;;;;;5075415;28;20391;-73